Time;durP1;ratioP1;P1;durP2;ratioP2;P2;SDS_P1;SDS_P2;PMS_P1;PMS_P2;Temp;Humidity;BMP_temperature;BMP_pressure;BME280_temperature;BME280_humidity;BME280_pressure;Samples;Min_cycle;Max_cycle;Signal;HPM_P1;HPM_P2
2022/08/11 00:01:12;;;;;;;64.05;52.67;;;27.30;51.20;;;;;;4946167;28;90871;-48
2022/08/11 00:04:02;;;;;;;64.83;52.87;;;27.30;51.20;;;;;;4946794;28;93486;-51
2022/08/11 00:06:37;;;;;;;63.63;52.23;;;27.30;51.40;;;;;;4946016;28;91321;-53
2022/08/11 00:09:12;;;;;;;64.53;52.63;;;27.20;51.30;;;;;;4941562;28;92365;-48
2022/08/11 00:11:50;;;;;;;64.13;52.50;;;27.20;51.20;;;;;;4949772;28;91618;-48
2022/08/11 00:14:32;;;;;;;63.35;52.25;;;27.20;51.20;;;;;;4946416;28;94296;-48
2022/08/11 00:16:59;;;;;;;64.30;52.33;;;27.20;51.20;;;;;;4949278;28;90080;-52
2022/08/11 00:19:31;;;;;;;64.00;52.25;;;27.20;51.20;;;;;;4944790;28;91351;-50
2022/08/11 00:21:58;;;;;;;64.13;52.35;;;27.20;51.20;;;;;;4949866;28;90741;-51
2022/08/11 00:24:24;;;;;;;63.50;52.38;;;27.10;51.10;;;;;;4950658;28;91040;-51
2022/08/11 00:26:52;;;;;;;64.13;52.60;;;27.20;51.10;;;;;;4944181;28;94936;-49
2022/08/11 00:29:18;;;;;;;63.47;52.17;;;27.20;51.30;;;;;;4945186;28;91938;-51
2022/08/11 00:31:56;;;;;;;63.53;52.40;;;27.20;51.20;;;;;;4939894;28;89666;-50
2022/08/11 00:34:26;;;;;;;64.22;52.55;;;27.10;51.10;;;;;;4944619;28;93070;-51
2022/08/11 00:37:12;;;;;;;63.97;52.53;;;27.10;51.10;;;;;;4937961;28;90442;-49
2022/08/11 00:39:48;;;;;;;64.03;52.35;;;27.10;51.10;;;;;;4939947;28;96330;-51
2022/08/11 00:42:42;;;;;;;64.00;52.50;;;27.10;51.20;;;;;;4942277;28;89954;-51
2022/08/11 00:45:27;;;;;;;64.05;52.53;;;27.10;51.20;;;;;;4938327;28;90383;-51
2022/08/11 00:47:56;;;;;;;64.00;52.33;;;27.10;51.10;;;;;;4933919;28;90698;-50
2022/08/11 00:50:41;;;;;;;64.20;52.55;;;27.10;51.10;;;;;;4940313;28;90983;-50
2022/08/11 00:53:43;;;;;;;64.10;52.20;;;27.10;51.10;;;;;;4940285;28;94050;-49
2022/08/11 00:56:23;;;;;;;63.28;52.28;;;27.00;51.10;;;;;;4935773;28;90056;-50
2022/08/11 00:59:03;;;;;;;64.32;52.40;;;27.00;51.00;;;;;;4940801;28;91858;-50
2022/08/11 01:01:55;;;;;;;63.77;52.40;;;27.00;51.20;;;;;;4934492;28;91711;-50
2022/08/11 01:04:39;;;;;;;64.25;52.25;;;27.00;51.20;;;;;;4942139;28;91864;-53
2022/08/11 01:07:32;;;;;;;63.47;52.60;;;27.00;51.10;;;;;;4938038;28;90824;-52
2022/08/11 01:10:37;;;;;;;64.93;52.47;;;27.00;51.20;;;;;;4937543;28;90736;-50
2022/08/11 01:13:08;;;;;;;63.22;52.17;;;27.00;51.10;;;;;;4937522;28;95433;-51
2022/08/11 01:15:56;;;;;;;63.85;52.53;;;27.00;51.20;;;;;;4933906;28;90348;-53
2022/08/11 01:18:49;;;;;;;63.15;52.03;;;27.00;51.10;;;;;;4934924;28;90701;-53
2022/08/11 01:21:36;;;;;;;63.40;52.15;;;27.00;51.10;;;;;;4935768;28;90951;-51
2022/08/11 01:24:17;;;;;;;64.30;52.35;;;27.00;51.20;;;;;;4940101;28;91097;-48
2022/08/11 01:27:02;;;;;;;63.47;52.35;;;27.00;51.10;;;;;;4933981;28;89782;-51
2022/08/11 01:30:05;;;;;;;64.40;52.10;;;27.00;51.00;;;;;;4942231;28;92444;-52
2022/08/11 01:33:18;;;;;;;63.65;52.13;;;26.90;51.00;;;;;;4942596;28;90734;-51
2022/08/11 01:36:02;;;;;;;63.53;52.22;;;27.00;51.20;;;;;;4939173;28;91213;-54
2022/08/11 01:39:02;;;;;;;62.92;52.05;;;26.90;51.00;;;;;;4945028;28;94131;-53
2022/08/11 01:44:45;;;;;;;64.65;52.25;;;26.90;51.00;;;;;;4931916;28;90231;-53
2022/08/11 01:50:12;;;;;;;63.70;52.22;;;26.90;51.00;;;;;;4933286;28;95492;-53
2022/08/11 01:52:53;;;;;;;63.33;52.20;;;26.90;51.00;;;;;;4936593;28;90544;-51
2022/08/11 01:55:26;;;;;;;63.85;52.38;;;26.90;51.10;;;;;;4935652;28;91117;-51
2022/08/11 01:58:18;;;;;;;64.03;52.40;;;26.90;51.10;;;;;;4933109;28;96880;-50
2022/08/11 02:01:10;;;;;;;62.95;52.08;;;26.90;51.10;;;;;;4938139;28;91073;-50
2022/08/11 02:03:50;;;;;;;62.85;51.90;;;26.90;51.10;;;;;;4942048;28;90694;-49
2022/08/11 02:09:28;;;;;;;63.47;52.53;;;26.90;51.20;;;;;;4938268;28;90131;-50
2022/08/11 02:12:02;;;;;;;63.33;52.22;;;26.90;51.10;;;;;;4935647;28;93047;-49
2022/08/11 02:14:43;;;;;;;63.55;52.33;;;26.80;50.80;;;;;;4939272;28;93064;-50
2022/08/11 02:17:20;;;;;;;63.42;52.17;;;26.90;51.20;;;;;;4944624;28;88797;-48
2022/08/11 02:25:57;;;;;;;63.78;52.22;;;26.80;51.20;;;;;;4937716;28;93784;-51
2022/08/11 02:28:48;;;;;;;62.75;52.03;;;26.80;51.20;;;;;;4936647;28;90037;-51
2022/08/11 02:34:55;;;;;;;63.35;52.10;;;26.80;51.20;;;;;;4939802;28;92525;-50
2022/08/11 02:37:32;;;;;;;63.17;52.00;;;26.80;51.30;;;;;;4939824;28;90369;-51
2022/08/11 02:39:59;;;;;;;63.45;52.05;;;26.80;51.30;;;;;;4937758;28;90435;-51
2022/08/11 02:42:39;;;;;;;63.65;52.40;;;26.80;51.40;;;;;;4938903;28;91747;-51
2022/08/11 02:45:10;;;;;;;64.22;52.30;;;26.80;51.30;;;;;;4941170;28;91459;-52
2022/08/11 02:51:33;;;;;;;63.50;52.15;;;26.80;51.30;;;;;;4935731;28;91409;-52
2022/08/11 02:54:14;;;;;;;64.15;52.30;;;26.80;51.30;;;;;;4943669;28;91562;-51
2022/08/11 02:57:04;;;;;;;64.10;52.00;;;26.70;51.30;;;;;;4942864;28;95374;-53
2022/08/11 02:59:53;;;;;;;63.15;52.22;;;26.80;51.40;;;;;;4939647;28;91872;-52
2022/08/11 03:02:31;;;;;;;64.10;52.08;;;26.70;51.30;;;;;;4943634;28;90736;-48
2022/08/11 03:04:57;;;;;;;63.45;52.20;;;26.70;51.30;;;;;;4940500;28;89853;-48
2022/08/11 03:07:39;;;;;;;63.35;51.95;;;26.70;51.30;;;;;;4937516;28;90919;-48
2022/08/11 03:10:21;;;;;;;62.55;51.95;;;26.70;51.30;;;;;;4936838;28;90132;-48
2022/08/11 03:19:14;;;;;;;64.28;52.55;;;26.70;51.30;;;;;;4936830;28;90599;-47
2022/08/11 03:22:06;;;;;;;63.40;52.05;;;26.70;51.40;;;;;;4938485;28;91283;-47
2022/08/11 03:25:00;;;;;;;63.55;52.25;;;26.70;51.40;;;;;;4913913;28;90336;-49
2022/08/11 03:27:26;;;;;;;63.47;52.15;;;26.70;51.30;;;;;;4936441;28;91109;-50
2022/08/11 03:30:16;;;;;;;62.80;51.92;;;26.70;51.30;;;;;;4937342;28;99241;-48
2022/08/11 03:36:13;;;;;;;64.90;52.00;;;26.70;51.30;;;;;;4933286;28;91059;-48
2022/08/11 03:39:09;;;;;;;62.87;51.87;;;26.60;51.30;;;;;;4945506;28;91001;-51
2022/08/11 03:41:41;;;;;;;62.85;51.92;;;26.60;51.30;;;;;;4937483;28;90181;-50
2022/08/11 03:44:14;;;;;;;62.47;51.75;;;26.60;51.30;;;;;;4938493;28;90360;-52
2022/08/11 03:47:06;;;;;;;63.28;52.25;;;26.60;51.40;;;;;;4934065;28;90210;-52
2022/08/11 03:49:51;;;;;;;62.88;51.92;;;26.60;51.40;;;;;;4933870;28;91512;-51
2022/08/11 03:52:26;;;;;;;63.30;52.08;;;26.60;51.40;;;;;;4942292;28;90969;-49
2022/08/11 03:55:03;;;;;;;62.97;51.75;;;26.60;51.30;;;;;;4939867;28;90150;-49
2022/08/11 03:58:30;;;;;;;63.83;52.05;;;26.60;51.30;;;;;;4944371;28;93168;-47
2022/08/11 04:01:15;;;;;;;62.85;52.15;;;26.60;51.30;;;;;;4915466;28;91236;-47
2022/08/11 04:04:46;;;;;;;62.78;52.00;;;26.60;51.50;;;;;;4910394;28;91102;-50
2022/08/11 04:08:00;;;;;;;63.25;52.03;;;26.60;51.50;;;;;;4936110;28;94064;-51
2022/08/11 04:10:53;;;;;;;64.10;52.10;;;26.50;51.40;;;;;;4936207;28;90061;-53
2022/08/11 04:13:41;;;;;;;62.97;52.13;;;26.50;51.40;;;;;;4928659;28;91766;-52
2022/08/11 04:16:43;;;;;;;63.33;52.20;;;26.50;51.40;;;;;;4928444;28;90821;-53
2022/08/11 04:19:14;;;;;;;62.03;51.88;;;26.50;51.40;;;;;;4938408;28;93138;-49
2022/08/11 04:21:46;;;;;;;62.85;51.90;;;26.50;51.40;;;;;;4943032;28;90132;-48
2022/08/11 04:24:49;;;;;;;63.10;52.10;;;26.50;51.50;;;;;;4931501;28;91383;-53
2022/08/11 04:27:39;;;;;;;63.08;52.13;;;26.50;51.50;;;;;;4941422;28;97667;-52
2022/08/11 04:30:25;;;;;;;64.03;51.85;;;26.50;51.60;;;;;;4934825;28;90543;-49
2022/08/11 04:33:29;;;;;;;62.50;51.95;;;26.50;51.50;;;;;;4944544;28;94209;-51
2022/08/11 04:36:20;;;;;;;62.55;51.78;;;26.50;51.50;;;;;;4950024;28;90813;-50
2022/08/11 04:39:21;;;;;;;63.20;51.92;;;26.50;51.50;;;;;;4936512;28;89420;-50
2022/08/11 04:45:05;;;;;;;63.28;52.25;;;26.50;51.50;;;;;;4940799;28;90253;-53
2022/08/11 05:03:15;;;;;;;62.33;51.90;;;26.40;51.60;;;;;;4935895;28;93854;-52
2022/08/11 05:06:02;;;;;;;62.72;51.83;;;26.40;51.70;;;;;;4933114;28;91529;-48
2022/08/11 05:08:51;;;;;;;62.42;51.75;;;26.40;51.70;;;;;;4940923;28;92555;-48
2022/08/11 05:11:29;;;;;;;63.40;51.90;;;26.40;51.70;;;;;;4936593;28;90523;-49
2022/08/11 05:34:51;;;;;;;62.70;52.05;;;26.30;51.60;;;;;;4914164;28;91666;-51
2022/08/11 05:37:33;;;;;;;62.05;51.67;;;26.30;51.60;;;;;;4911669;28;90157;-51
2022/08/11 05:57:22;;;;;;;64.68;52.22;;;26.30;49.80;;;;;;4925559;28;93516;-49
2022/08/11 05:59:48;;;;;;;64.28;52.67;;;26.10;48.60;;;;;;4918112;28;94093;-51
2022/08/11 06:02:14;;;;;;;66.07;52.50;;;25.90;48.00;;;;;;4912047;28;91160;-49
2022/08/11 06:04:41;;;;;;;65.80;52.95;;;25.70;48.20;;;;;;4923295;28;90236;-48
2022/08/11 06:07:10;;;;;;;66.25;52.72;;;25.50;48.50;;;;;;4913335;28;91398;-51
2022/08/11 06:09:38;;;;;;;67.43;52.83;;;25.40;48.90;;;;;;4917609;28;93897;-51
2022/08/11 06:12:15;;;;;;;63.63;52.42;;;25.40;49.00;;;;;;4907146;28;91892;-48
2022/08/11 06:14:44;;;;;;;64.28;52.63;;;25.40;49.30;;;;;;4911721;28;90088;-50
2022/08/11 06:17:11;;;;;;;64.05;52.60;;;25.40;49.30;;;;;;4922074;28;94154;-49
2022/08/11 06:19:41;;;;;;;67.93;53.47;;;25.40;49.30;;;;;;4885762;28;91041;-50
2022/08/11 06:22:10;;;;;;;65.32;53.47;;;25.40;48.80;;;;;;4916583;28;94076;-49
2022/08/11 06:24:39;;;;;;;67.25;53.35;;;25.30;49.00;;;;;;4922182;28;91946;-49
2022/08/11 06:27:06;;;;;;;70.00;53.03;;;25.20;48.60;;;;;;4922234;28;94056;-48
2022/08/11 06:29:40;;;;;;;66.32;53.15;;;25.20;49.40;;;;;;4918480;28;91877;-46
2022/08/11 06:32:11;;;;;;;65.93;53.53;;;25.20;49.00;;;;;;4933762;28;91989;-48
2022/08/11 06:34:46;;;;;;;71.13;53.13;;;25.20;48.80;;;;;;4934648;28;92068;-48
2022/08/11 06:37:36;;;;;;;64.70;52.55;;;25.20;48.70;;;;;;4929353;28;91103;-50
2022/08/11 06:40:26;;;;;;;69.95;52.80;;;25.10;48.70;;;;;;4933729;28;91921;-53
2022/08/11 06:43:10;;;;;;;70.13;52.95;;;25.20;49.90;;;;;;4939018;28;90307;-55
2022/08/11 06:46:03;;;;;;;63.78;52.58;;;25.30;50.40;;;;;;4938448;28;89982;-52
2022/08/11 06:48:31;;;;;;;65.93;52.85;;;25.40;50.30;;;;;;4939746;28;90173;-50
2022/08/11 06:51:11;;;;;;;65.88;52.70;;;25.40;50.30;;;;;;4940898;28;92708;-54
2022/08/11 06:53:49;;;;;;;67.05;52.33;;;25.40;50.20;;;;;;4945845;28;90374;-52
2022/08/11 07:02:17;;;;;;;65.65;52.65;;;25.50;49.70;;;;;;4944417;28;90576;-51
2022/08/11 07:04:52;;;;;;;67.25;52.55;;;25.50;49.80;;;;;;4938864;28;91543;-52
2022/08/11 07:16:27;;;;;;;67.07;52.63;;;25.60;48.90;;;;;;4941020;28;90616;-50
2022/08/11 07:30:57;;;;;;;66.25;52.72;;;25.80;48.80;;;;;;4930975;28;92772;-53
2022/08/11 07:33:31;;;;;;;65.18;53.00;;;25.80;48.10;;;;;;4932120;28;91968;-49
2022/08/11 07:36:00;;;;;;;67.32;52.70;;;25.80;48.20;;;;;;4943734;28;89981;-50
2022/08/11 07:38:43;;;;;;;64.60;52.83;;;25.80;48.30;;;;;;4941805;28;91739;-46
2022/08/11 07:41:14;;;;;;;65.65;53.20;;;25.90;48.30;;;;;;4931602;28;90784;-49
2022/08/11 07:43:41;;;;;;;65.80;52.92;;;25.90;48.00;;;;;;4933724;28;90510;-50
2022/08/11 07:54:27;;;;;;;69.65;53.17;;;26.10;47.60;;;;;;4942004;28;91081;-47
2022/08/11 07:56:53;;;;;;;66.22;52.80;;;26.10;47.60;;;;;;4939529;28;90237;-48
2022/08/11 08:18:37;;;;;;;68.53;53.53;;;26.30;47.80;;;;;;4943279;28;90877;-51
2022/08/11 08:21:11;;;;;;;67.50;53.03;;;26.40;47.60;;;;;;4943236;28;94247;-47
2022/08/11 08:23:38;;;;;;;66.78;53.28;;;26.40;47.70;;;;;;4940566;28;90200;-51
2022/08/11 08:26:57;;;;;;;66.30;53.05;;;26.40;47.70;;;;;;4931841;28;92683;-48
2022/08/11 08:30:46;;;;;;;65.93;52.75;;;26.50;47.40;;;;;;4933453;28;94995;-54
2022/08/11 08:31:45;;;;;;;70.63;53.10;;;26.40;47.40;;;;;;4940179;28;91438;-51
2022/08/11 08:34:12;;;;;;;66.15;53.22;;;26.40;47.40;;;;;;4942124;28;89891;-49
2022/08/11 08:36:41;;;;;;;66.13;53.08;;;26.50;47.40;;;;;;4937714;28;95751;-51
2022/08/11 08:39:07;;;;;;;70.30;54.45;;;26.50;47.30;;;;;;4943045;28;91027;-48
2022/08/11 08:41:37;;;;;;;70.07;54.25;;;26.50;47.80;;;;;;4943072;28;90313;-49
2022/08/11 08:44:08;;;;;;;70.33;54.23;;;26.60;48.00;;;;;;4943480;28;89822;-47
2022/08/11 08:46:41;;;;;;;74.60;54.15;;;26.60;47.90;;;;;;4942823;28;90147;-53
2022/08/11 08:49:12;;;;;;;69.30;53.90;;;26.60;47.90;;;;;;4931484;28;93924;-46
2022/08/11 08:51:40;;;;;;;71.03;53.85;;;26.60;47.80;;;;;;4944257;28;92375;-45
2022/08/11 08:54:13;;;;;;;68.35;54.03;;;26.60;47.50;;;;;;4946260;28;92325;-44
2022/08/11 08:56:41;;;;;;;69.57;53.78;;;26.60;47.40;;;;;;4943437;28;91692;-45
2022/08/11 08:59:09;;;;;;;69.38;53.85;;;26.60;47.50;;;;;;4944211;28;90666;-46
2022/08/11 09:02:00;;;;;;;69.22;53.92;;;26.70;47.40;;;;;;4945679;28;89560;-45
2022/08/11 09:04:27;;;;;;;70.65;54.20;;;26.70;47.20;;;;;;4935729;28;90401;-47
2022/08/11 09:06:57;;;;;;;70.10;53.65;;;26.70;47.10;;;;;;4939175;28;91001;-45
2022/08/11 09:09:23;;;;;;;69.45;54.42;;;26.80;46.90;;;;;;4931997;28;90369;-48
2022/08/11 09:11:49;;;;;;;68.78;54.30;;;26.80;47.30;;;;;;4942338;28;89987;-47
2022/08/11 09:17:21;;;;;;;70.93;54.15;;;26.80;47.10;;;;;;4938467;28;91865;-48
2022/08/11 09:19:48;;;;;;;67.60;54.05;;;26.90;46.90;;;;;;4936749;28;90844;-48
2022/08/11 09:27:52;;;;;;;69.85;54.25;;;26.90;47.00;;;;;;4940072;28;94259;-49
2022/08/11 09:30:19;;;;;;;70.05;54.67;;;26.90;47.00;;;;;;4933761;28;91184;-47
2022/08/11 09:32:46;;;;;;;68.38;54.15;;;26.90;47.00;;;;;;4941450;28;90213;-51
2022/08/11 09:35:13;;;;;;;70.95;54.65;;;27.00;47.40;;;;;;4941684;28;90933;-48
2022/08/11 09:40:30;;;;;;;67.93;53.92;;;27.00;46.80;;;;;;4947319;28;89520;-54
2022/08/11 09:45:51;;;;;;;68.25;54.40;;;27.00;46.20;;;;;;4944955;28;89943;-50
2022/08/11 09:48:18;;;;;;;67.88;54.00;;;27.00;46.30;;;;;;4939497;28;90612;-51
2022/08/11 09:50:48;;;;;;;66.60;53.55;;;27.00;45.80;;;;;;4943300;28;90573;-52
2022/08/11 09:53:19;;;;;;;69.00;53.77;;;27.00;46.00;;;;;;4937663;28;90090;-54
2022/08/11 09:55:46;;;;;;;69.85;54.13;;;27.00;46.00;;;;;;4935052;28;93744;-47
2022/08/11 09:58:15;;;;;;;69.82;54.20;;;27.10;46.10;;;;;;4934399;28;91677;-52
2022/08/11 10:00:42;;;;;;;66.32;53.88;;;27.10;46.10;;;;;;4944084;28;91643;-48
2022/08/11 10:03:16;;;;;;;68.68;54.10;;;27.20;45.40;;;;;;4938957;28;91257;-49
2022/08/11 10:08:43;;;;;;;66.93;53.70;;;27.20;45.50;;;;;;4937660;28;93269;-49
2022/08/11 10:11:11;;;;;;;70.65;54.13;;;27.20;44.90;;;;;;4937982;28;91926;-48
2022/08/11 10:16:34;;;;;;;69.72;53.85;;;27.30;43.20;;;;;;4941915;28;89788;-50
2022/08/11 10:19:03;;;;;;;69.60;54.13;;;27.30;42.60;;;;;;4942598;28;91018;-48
2022/08/11 10:26:48;;;;;;;70.55;53.95;;;27.30;42.90;;;;;;4938622;28;89919;-53
2022/08/11 10:27:16;;;;;;;69.30;53.65;;;27.40;43.20;;;;;;4954152;28;89274;-49
2022/08/11 10:35:15;;;;;;;69.07;53.85;;;27.40;44.10;;;;;;4945272;28;91985;-48
2022/08/11 10:37:44;;;;;;;68.22;54.13;;;27.40;44.40;;;;;;4944192;28;89858;-49
2022/08/11 10:40:17;;;;;;;68.25;53.55;;;27.40;44.50;;;;;;4946137;28;90027;-52
2022/08/11 10:43:01;;;;;;;67.47;53.72;;;27.40;44.90;;;;;;4945953;28;91204;-52
2022/08/11 10:48:15;;;;;;;66.13;53.55;;;27.50;44.50;;;;;;4954339;28;90091;-52
2022/08/11 10:59:03;;;;;;;72.32;54.05;;;27.50;44.60;;;;;;4948687;28;93091;-48
2022/08/11 11:01:34;;;;;;;67.95;53.70;;;27.50;44.50;;;;;;4941846;28;92819;-49
2022/08/11 11:04:06;;;;;;;66.43;53.92;;;27.60;43.80;;;;;;4941653;28;90290;-50
2022/08/11 11:06:43;;;;;;;67.45;53.50;;;27.60;44.20;;;;;;4949458;28;93301;-49
2022/08/11 11:09:31;;;;;;;67.63;54.05;;;27.60;44.10;;;;;;4936889;28;92428;-52
2022/08/11 11:17:55;;;;;;;66.68;53.58;;;27.60;44.40;;;;;;4940223;28;90026;-50
2022/08/11 11:20:34;;;;;;;66.93;54.13;;;27.60;44.40;;;;;;4950218;28;91734;-52
2022/08/11 11:23:05;;;;;;;67.85;54.15;;;27.60;44.50;;;;;;4947609;28;90224;-50
2022/08/11 11:26:05;;;;;;;67.15;53.72;;;27.60;44.50;;;;;;4947088;28;92985;-55
2022/08/11 11:29:08;;;;;;;68.85;54.33;;;27.60;44.30;;;;;;4938869;28;91044;-53
2022/08/11 11:31:55;;;;;;;66.50;54.05;;;27.60;44.80;;;;;;4905701;28;91899;-51
2022/08/11 11:34:49;;;;;;;67.45;53.72;;;27.70;45.50;;;;;;4946208;28;90169;-52
2022/08/11 11:37:16;;;;;;;68.07;54.00;;;27.70;44.90;;;;;;4940432;28;91231;-48
2022/08/11 11:39:42;;;;;;;66.28;53.60;;;27.80;44.50;;;;;;4943191;28;93105;-48
2022/08/11 11:42:09;;;;;;;67.13;53.90;;;27.80;44.80;;;;;;4950128;28;91555;-52
2022/08/11 11:44:38;;;;;;;67.45;54.00;;;27.90;44.20;;;;;;4938501;28;90474;-51
2022/08/11 11:47:05;;;;;;;71.60;54.17;;;27.90;44.60;;;;;;4923725;28;91257;-53
2022/08/11 11:49:31;;;;;;;67.95;54.20;;;27.90;44.10;;;;;;4916523;28;90132;-49
2022/08/11 11:51:58;;;;;;;67.20;53.78;;;27.90;44.20;;;;;;4938890;28;90263;-51
2022/08/11 11:54:28;;;;;;;70.35;54.35;;;27.90;44.60;;;;;;4949681;28;91133;-52
2022/08/11 11:56:56;;;;;;;66.80;53.77;;;28.00;44.40;;;;;;4938352;28;91496;-51
2022/08/11 12:02:11;;;;;;;73.40;54.15;;;28.00;45.00;;;;;;4941304;28;91921;-52
2022/08/11 12:04:40;;;;;;;67.72;53.92;;;28.10;45.80;;;;;;4946631;28;91178;-48
2022/08/11 12:09:52;;;;;;;69.43;54.28;;;28.10;46.60;;;;;;4944867;28;94249;-49
2022/08/11 12:15:05;;;;;;;68.53;54.13;;;28.20;47.60;;;;;;4934584;28;89938;-54
2022/08/11 12:17:31;;;;;;;69.47;54.10;;;28.30;45.10;;;;;;4933396;28;90031;-49
2022/08/11 12:19:57;;;;;;;67.53;54.05;;;28.30;44.20;;;;;;4945752;28;90943;-48
2022/08/11 12:27:54;;;;;;;68.93;54.15;;;28.50;40.90;;;;;;4940200;28;89814;-49
2022/08/11 12:30:20;;;;;;;68.63;53.90;;;28.50;41.60;;;;;;4941071;28;90656;-47
2022/08/11 12:32:46;;;;;;;69.55;54.17;;;28.50;40.40;;;;;;4945077;28;90253;-53
2022/08/11 12:35:14;;;;;;;68.18;54.55;;;28.50;40.90;;;;;;4948630;28;95386;-48
2022/08/11 12:37:44;;;;;;;68.38;54.33;;;28.50;40.10;;;;;;4944588;28;90502;-48
2022/08/11 12:45:57;;;;;;;68.63;53.95;;;28.50;41.90;;;;;;4940366;28;90943;-47
2022/08/11 12:54:27;;;;;;;67.57;54.17;;;28.50;41.70;;;;;;4952151;28;90245;-51
2022/08/11 13:05:24;;;;;;;69.15;54.25;;;28.50;41.90;;;;;;4952111;28;89029;-50
2022/08/11 13:07:51;;;;;;;67.40;53.88;;;28.60;41.70;;;;;;4955121;28;89932;-55
2022/08/11 13:13:07;;;;;;;68.90;53.90;;;28.70;41.90;;;;;;4940958;28;95197;-51
2022/08/11 13:15:37;;;;;;;66.90;54.00;;;28.60;41.40;;;;;;4939078;28;89696;-52
2022/08/11 13:18:06;;;;;;;67.15;54.17;;;28.70;41.50;;;;;;4942347;28;92262;-53
2022/08/11 13:20:33;;;;;;;67.82;54.00;;;28.70;41.40;;;;;;4940687;28;90499;-54
2022/08/11 13:23:00;;;;;;;67.50;53.95;;;28.70;41.60;;;;;;4935726;28;92119;-55
2022/08/11 13:25:28;;;;;;;68.50;54.25;;;28.70;41.90;;;;;;4932912;28;90975;-52
2022/08/11 13:27:57;;;;;;;70.18;53.97;;;28.70;41.30;;;;;;4936089;28;94614;-51
2022/08/11 13:33:12;;;;;;;67.72;53.90;;;28.80;41.00;;;;;;4946436;28;96585;-56
2022/08/11 13:35:39;;;;;;;68.07;53.97;;;28.80;39.90;;;;;;4946570;28;90293;-54
2022/08/11 13:38:06;;;;;;;69.13;54.28;;;28.90;39.80;;;;;;4938094;28;92455;-57
2022/08/11 13:40:33;;;;;;;68.97;54.47;;;28.90;38.60;;;;;;4939429;28;90966;-54
2022/08/11 13:42:59;;;;;;;66.80;54.13;;;28.90;39.50;;;;;;4926629;28;90533;-51
2022/08/11 13:45:26;;;;;;;66.50;54.03;;;28.90;39.70;;;;;;4943107;28;89861;-52
2022/08/11 13:47:55;;;;;;;67.68;54.60;;;28.90;39.90;;;;;;4934178;28;90775;-52
2022/08/11 13:51:29;;;;;;;67.55;54.33;;;29.00;40.50;;;;;;4945150;28;92345;-49
2022/08/11 13:53:11;;;;;;;66.72;54.10;;;28.90;40.60;;;;;;4943313;28;90473;-52
2022/08/11 13:55:40;;;;;;;69.00;54.35;;;29.00;40.20;;;;;;4936971;28;89714;-52
2022/08/11 13:58:12;;;;;;;69.38;54.30;;;29.00;40.60;;;;;;4930830;28;91340;-53
2022/08/11 14:00:40;;;;;;;67.55;54.35;;;29.00;41.00;;;;;;4931944;28;90294;-50
2022/08/11 14:03:11;;;;;;;69.05;53.97;;;29.00;40.50;;;;;;4938533;28;90617;-52
2022/08/11 14:05:38;;;;;;;;;;;29.00;41.00;;;;;;4941981;28;90350;-52
2022/08/11 14:08:11;;;;;;;66.40;53.97;;;29.00;40.70;;;;;;4943421;28;90580;-52
2022/08/11 14:10:38;;;;;;;68.55;54.42;;;29.00;40.50;;;;;;4939806;28;90151;-53
2022/08/11 14:16:00;;;;;;;68.93;54.15;;;29.00;40.00;;;;;;4942607;28;91000;-52
2022/08/11 14:18:29;;;;;;;67.47;54.40;;;29.00;40.00;;;;;;4936624;28;90606;-51
2022/08/11 14:23:49;;;;;;;68.57;54.40;;;29.00;39.50;;;;;;4941375;28;90361;-55
2022/08/11 14:26:22;;;;;;;67.20;54.13;;;29.00;39.70;;;;;;4938781;28;90394;-46
2022/08/11 14:29:13;;;;;;;67.97;54.13;;;29.00;40.20;;;;;;4938690;28;97634;-53
2022/08/11 14:31:47;;;;;;;68.40;54.22;;;29.00;39.80;;;;;;4939663;28;90310;-53
2022/08/11 14:34:13;;;;;;;67.47;54.40;;;29.00;39.60;;;;;;4942915;28;89959;-53
2022/08/11 14:36:43;;;;;;;69.00;54.17;;;29.00;40.00;;;;;;4943158;28;90153;-53
2022/08/11 14:39:12;;;;;;;68.50;54.35;;;29.00;40.40;;;;;;4947372;28;90937;-54
2022/08/11 14:47:19;;;;;;;70.50;54.33;;;29.00;40.90;;;;;;4936187;28;92052;-51
2022/08/11 14:49:45;;;;;;;67.60;54.05;;;29.00;40.50;;;;;;4946504;28;92970;-50
2022/08/11 14:52:16;;;;;;;67.63;54.30;;;29.00;39.40;;;;;;4942373;28;90723;-52
2022/08/11 14:57:35;;;;;;;69.03;54.20;;;29.00;38.80;;;;;;4943384;28;90408;-53
2022/08/11 15:00:05;;;;;;;69.55;54.95;;;29.00;39.70;;;;;;4927743;28;92849;-54
2022/08/11 15:05:19;;;;;;;70.38;54.25;;;29.00;40.20;;;;;;4945864;28;89890;-58
2022/08/11 15:07:46;;;;;;;68.85;54.08;;;29.00;40.50;;;;;;4935959;28;90117;-56
2022/08/11 15:10:11;;;;;;;70.22;54.72;;;29.00;41.00;;;;;;4935413;28;90023;-49
2022/08/11 15:12:43;;;;;;;70.90;54.65;;;29.00;41.20;;;;;;4941164;28;94528;-54
2022/08/11 15:17:56;;;;;;;69.85;54.38;;;29.10;41.00;;;;;;4946432;28;96979;-51
2022/08/11 15:26:00;;;;;;;68.95;54.28;;;29.10;40.90;;;;;;4937498;28;92538;-54
2022/08/11 15:45:46;;;;;;;69.43;54.33;;;29.20;39.70;;;;;;4940478;28;91101;-55
2022/08/11 15:48:06;;;;;;;69.28;54.30;;;29.30;39.90;;;;;;4941324;28;96522;-55
2022/08/11 15:50:37;;;;;;;69.35;54.55;;;29.40;40.30;;;;;;4936030;28;94052;-54
2022/08/11 15:53:10;;;;;;;68.60;54.42;;;29.50;40.60;;;;;;4938405;28;89963;-54
2022/08/11 15:55:37;;;;;;;68.82;54.22;;;29.60;40.40;;;;;;4937299;28;93356;-51
2022/08/11 16:04:11;;;;;;;67.53;54.30;;;29.60;40.60;;;;;;4949728;28;90545;-50
2022/08/11 16:07:10;;;;;;;67.82;54.55;;;29.50;40.60;;;;;;4944217;28;90707;-51
2022/08/11 16:09:47;;;;;;;68.68;54.30;;;29.60;40.90;;;;;;4941673;28;90714;-55
2022/08/11 16:12:21;;;;;;;67.15;54.40;;;29.60;41.00;;;;;;4928844;28;94126;-53
2022/08/11 16:17:43;;;;;;;66.47;54.08;;;29.60;41.10;;;;;;4931592;28;90920;-52
2022/08/11 16:20:10;;;;;;;65.93;53.83;;;29.50;41.20;;;;;;4944851;28;90012;-54
2022/08/11 16:22:40;;;;;;;67.00;54.28;;;29.40;41.30;;;;;;4939174;28;91358;-56
2022/08/11 16:25:09;;;;;;;67.13;54.28;;;29.40;41.40;;;;;;4934264;28;91385;-51
2022/08/11 16:27:45;;;;;;;67.55;54.33;;;29.40;41.60;;;;;;4950948;28;97700;-50
2022/08/11 16:30:13;;;;;;;67.50;54.05;;;29.40;41.50;;;;;;4945629;28;90341;-52
2022/08/11 16:32:42;;;;;;;67.97;54.05;;;29.50;41.40;;;;;;4950517;28;89434;-54
2022/08/11 16:40:51;;;;;;;68.78;54.50;;;29.50;41.30;;;;;;4949790;28;90998;-52
2022/08/11 16:48:52;;;;;;;67.93;54.17;;;29.40;41.30;;;;;;4939134;28;91117;-55
2022/08/11 16:51:19;;;;;;;69.10;54.55;;;29.40;41.20;;;;;;4943970;28;91252;-56
2022/08/11 16:53:46;;;;;;;70.57;54.42;;;29.40;41.30;;;;;;4954597;28;89959;-51
2022/08/11 16:56:16;;;;;;;70.50;54.47;;;29.40;41.10;;;;;;4950194;28;90119;-54
2022/08/11 17:01:32;;;;;;;68.13;54.72;;;29.40;41.30;;;;;;4946787;28;90979;-56
2022/08/11 17:18:05;;;;;;;68.90;54.90;;;29.40;40.70;;;;;;4956685;28;90121;-54
2022/08/11 17:20:31;;;;;;;;;;;29.40;40.60;;;;;;4957338;28;90271;-53
2022/08/11 17:25:43;;;;;;;66.63;54.53;;;29.40;40.30;;;;;;4955207;28;90889;-54
2022/08/11 17:28:12;;;;;;;67.72;54.38;;;29.30;39.90;;;;;;4946131;28;90330;-55
2022/08/11 17:36:10;;;;;;;67.78;54.70;;;29.30;39.50;;;;;;4948756;28;89583;-56
2022/08/11 17:38:38;;;;;;;69.28;54.42;;;29.30;39.70;;;;;;4960003;28;90080;-50
2022/08/11 17:49:25;;;;;;;68.60;54.13;;;29.30;40.60;;;;;;4947086;28;91250;-54
2022/08/11 18:00:09;;;;;;;69.03;54.60;;;29.20;41.10;;;;;;4940837;28;91393;-55
2022/08/11 18:05:28;;;;;;;69.05;54.50;;;29.20;41.60;;;;;;4944867;28;91353;-55
